Lewistown Municipal Airport
KLWT : now visible

Airfield :











YOU CAN JOIN US ON...

 
LOGIN :

Register | Disclaimer

   EN    FR    IT 

 









Legend :    VFR   Marginal VFR   IFR   Intensive IFR   Very Intensive IFR
Visi :
Ceiling :
>= 8 km
>= 3000ft
5 to 8 km
1000 to 3000 ft
1500m to 5 km
500 to 1000 ft
800 to 1500m
200 to 500 ft
< 800m
< 200 ft
Symbols :   Thunderstorms  Fog  Heavy snow  Heavy precipitations  Wind > 20 kt






- Airport Elevation : 4170 ft
- IATA code : LWT


KLWT - Lewistown Municipal

CURRENT METAR :
  • 280554Z AUTO 16006KT 10SM FEW100 12/04 A2977 RMK AO2 SLP056 T01170044 10200 20111 50001

EXPIRED METARs :
  • 280454Z AUTO 22010KT 10SM CLR 12/05 A2978 RMK AO2 SLP061 T01220050

TAF KLWT
Valid from the 28 at 06:00 until the 29 at 06:00 UTC


280540Z 2806/2906 23011KT P6SM SCT090 BKN250
FM280800 VRB04KT P6SM VCSH SCT030 BKN050
TEMPO 2810/2814 4SM -SHRA BR BKN030
FM281700 33008KT P6SM SCT030 BKN060
PROB30 2821/2903 4SM -SHRA BR BKN015 OVC025
FM290300 VRB06KT P6SM VCSH SCT025 BKN050
KZLC FIR / North America



MET'MAP, your aeronautical weather chart ! - Copyright ORBIFLY December 2007 - Disclaimer

ORBIFLY MET'MAP TEAM :

Programming & Development : Alexandra Zaïnal
Original concept : Baudouin d'Aumeries
Technical & hardware support : Manuel Goepfert
Assistance : Marc-Olivier Méhu

Contact : metmap@orbifly.com




SOURCES & CREDITS :

   NOAA       Earth
Advisory